Time;durP1;ratioP1;P1;durP2;ratioP2;P2;SDS_P1;SDS_P2;PMS_P1;PMS_P2;Temp;Humidity;BMP_temperature;BMP_pressure;BME280_temperature;BME280_humidity;BME280_pressure;Samples;Min_cycle;Max_cycle;Signal;HPM_P1;HPM_P2
2022/03/13 00:01:46;;;;;;;3.00;1.85;;;;;;;18.35;39.86;101514.75;5123338;28;20121;-57
2022/03/13 00:04:13;;;;;;;2.20;2.00;;;;;;;18.33;39.97;101511.34;5124443;28;20031;-57
2022/03/13 00:06:38;;;;;;;2.10;1.90;;;;;;;18.34;39.70;101515.72;5124052;28;20034;-58
2022/03/13 00:09:05;;;;;;;2.70;2.10;;;;;;;18.34;39.83;101517.56;5123557;27;20031;-58
2022/03/13 00:11:32;;;;;;;3.42;2.10;;;;;;;18.33;39.77;101516.72;5124214;28;20031;-57
2022/03/13 00:13:58;;;;;;;2.38;1.85;;;;;;;18.33;39.79;101514.03;5124203;28;20031;-57
2022/03/13 00:16:24;;;;;;;2.35;1.95;;;;;;;18.31;39.73;101516.06;5122631;28;20167;-58
2022/03/13 00:18:49;;;;;;;2.33;2.00;;;;;;;18.32;39.67;101519.59;5103251;28;20389;-58
2022/03/13 00:21:17;;;;;;;2.10;1.90;;;;;;;18.31;39.74;101517.88;5103792;28;20658;-57
2022/03/13 00:23:43;;;;;;;2.00;1.80;;;;;;;18.30;39.78;101511.63;5117817;28;20094;-57
2022/03/13 00:26:08;;;;;;;2.03;1.83;;;;;;;18.29;39.81;101506.41;5123503;28;20496;-58
2022/03/13 00:28:36;;;;;;;2.13;1.70;;;;;;;18.27;39.78;101506.56;5124061;28;20027;-58
2022/03/13 00:31:01;;;;;;;2.28;1.90;;;;;;;18.26;39.68;101507.56;5122169;28;20053;-58
2022/03/13 00:33:27;;;;;;;1.70;1.60;;;;;;;18.25;39.78;101519.31;5123324;28;20491;-58
2022/03/13 00:35:52;;;;;;;2.15;1.95;;;;;;;18.20;39.76;101506.31;5124110;28;20023;-56
2022/03/13 00:38:19;;;;;;;1.85;1.70;;;;;;;18.20;39.96;101506.31;5122563;28;20058;-57
2022/03/13 00:40:50;;;;;;;2.20;2.00;;;;;;;18.23;39.89;101516.78;5123546;28;20117;-58
2022/03/13 00:43:15;;;;;;;1.85;1.70;;;;;;;18.23;39.80;101514.09;5123977;28;20456;-58
2022/03/13 00:45:41;;;;;;;1.88;1.77;;;;;;;18.21;39.87;101505.31;5122911;28;20038;-58
2022/03/13 00:48:07;;;;;;;2.40;2.10;;;;;;;18.20;39.67;101495.56;5121783;28;20024;-58
2022/03/13 00:50:32;;;;;;;2.30;1.83;;;;;;;18.20;39.81;101500.94;5123193;28;20488;-58
2022/03/13 00:52:57;;;;;;;2.25;2.05;;;;;;;18.19;39.85;101507.31;5123637;28;20049;-58
2022/03/13 00:55:23;;;;;;;1.77;1.67;;;;;;;18.18;39.66;101507.44;5123646;28;20027;-57
2022/03/13 00:57:48;;;;;;;1.70;1.60;;;;;;;18.16;39.70;101507.59;5123650;28;20517;-58
2022/03/13 01:00:14;;;;;;;2.00;1.70;;;;;;;18.12;39.61;101491.91;5120826;28;20525;-58
2022/03/13 01:02:39;;;;;;;2.17;1.85;;;;;;;18.13;39.81;101505.22;5102984;28;20103;-57
2022/03/13 01:05:08;;;;;;;1.98;1.77;;;;;;;18.15;39.85;101505.06;5103189;28;20024;-58
2022/03/13 01:07:33;;;;;;;2.35;1.95;;;;;;;18.14;39.68;101504.22;5103141;28;20020;-57
2022/03/13 01:09:58;;;;;;;2.13;1.92;;;;;;;18.12;39.59;101500.81;5102744;28;20061;-57
2022/03/13 01:12:23;;;;;;;2.38;2.03;;;;;;;18.11;39.85;101504.53;5102931;28;20024;-58
2022/03/13 01:14:49;;;;;;;2.10;1.90;;;;;;;18.11;39.79;101504.53;5102467;28;20062;-57
2022/03/13 01:17:17;;;;;;;2.00;1.80;;;;;;;18.11;39.77;101501.00;5108429;28;20020;-57
2022/03/13 01:19:42;;;;;;;2.67;2.05;;;;;;;18.10;39.70;101504.69;5123124;28;20472;-57
2022/03/13 01:22:08;;;;;;;2.45;1.88;;;;;;;18.08;39.80;101504.81;5123328;28;20055;-57
2022/03/13 01:24:55;;;;;;;1.80;1.70;;;;;;;18.08;39.83;101496.75;5121740;28;20388;-57
2022/03/13 01:27:21;;;;;;;2.47;2.10;;;;;;;18.07;39.74;101492.38;5122406;28;20059;-58
2022/03/13 01:29:47;;;;;;;2.15;1.90;;;;;;;18.06;39.77;101493.38;5122591;28;20020;-58
2022/03/13 01:32:13;;;;;;;1.77;1.63;;;;;;;18.04;39.70;101481.88;5121900;28;20023;-58
2022/03/13 01:34:43;;;;;;;2.00;1.80;;;;;;;18.05;39.66;101482.72;5123063;28;20031;-58
2022/03/13 01:37:21;;;;;;;2.00;1.80;;;;;;;18.03;39.66;101485.59;5123455;28;20016;-57
2022/03/13 01:39:48;;;;;;;2.08;1.83;;;;;;;18.03;39.54;101484.75;5122708;28;20034;-58
2022/03/13 01:42:13;;;;;;;2.13;1.92;;;;;;;18.01;39.55;101478.66;5123266;28;20031;-57
2022/03/13 01:44:39;;;;;;;2.00;1.80;;;;;;;18.01;39.68;101481.34;5125971;28;20112;-59
2022/03/13 01:47:05;;;;;;;2.13;1.92;;;;;;;18.01;39.84;101475.94;5126423;28;20043;-60
2022/03/13 01:49:30;;;;;;;1.90;1.70;;;;;;;17.98;39.81;101469.88;5115478;28;20042;-57
2022/03/13 01:51:57;;;;;;;2.05;1.85;;;;;;;17.99;39.62;101482.34;5106704;28;20425;-58
2022/03/13 01:54:22;;;;;;;1.65;1.55;;;;;;;17.94;39.63;101464.97;5111866;28;20019;-57
2022/03/13 01:56:48;;;;;;;2.35;1.95;;;;;;;17.98;39.63;101471.72;5112317;28;20047;-58
2022/03/13 01:59:14;;;;;;;2.15;1.95;;;;;;;17.97;39.60;101470.88;5112253;28;20028;-55
2022/03/13 02:01:40;;;;;;;2.13;1.80;;;;;;;17.97;39.67;101457.44;5110626;28;20043;-57
2022/03/13 02:04:06;;;;;;;2.13;1.92;;;;;;;17.97;39.62;101456.59;5106541;28;20035;-58
2022/03/13 02:06:32;;;;;;;2.20;1.77;;;;;;;17.96;39.71;101454.88;5105974;28;20028;-58
2022/03/13 02:08:57;;;;;;;2.08;1.77;;;;;;;17.95;39.67;101451.34;5105908;28;20040;-57
2022/03/13 02:11:24;;;;;;;2.05;1.85;;;;;;;17.94;39.52;101448.81;5106126;28;20024;-57
2022/03/13 02:13:52;;;;;;;1.80;1.70;;;;;;;17.94;39.71;101440.75;5105898;28;20524;-55
2022/03/13 02:16:19;;;;;;;1.92;1.75;;;;;;;17.92;39.64;101440.88;5105309;28;20021;-56
2022/03/13 02:18:47;;;;;;;2.03;1.88;;;;;;;17.94;39.66;101440.75;5123027;28;20120;-55
2022/03/13 02:21:12;;;;;;;2.58;1.85;;;;;;;17.92;39.67;101430.09;5126247;28;20051;-57
2022/03/13 02:23:38;;;;;;;1.77;1.60;;;;;;;17.92;39.52;101429.25;5126357;28;20024;-55
2022/03/13 02:26:05;;;;;;;2.22;2.03;;;;;;;17.90;39.60;101428.59;5125934;28;20028;-57
2022/03/13 02:28:32;;;;;;;2.17;1.98;;;;;;;17.91;39.60;101430.28;5125232;28;20031;-57
2022/03/13 02:31:04;;;;;;;1.63;1.52;;;;;;;17.91;39.66;101427.59;5125322;28;20035;-57
2022/03/13 02:33:30;;;;;;;2.33;1.63;;;;;;;17.89;39.66;101429.59;5125501;28;20261;-57
2022/03/13 02:35:57;;;;;;;2.08;1.88;;;;;;;17.83;39.56;101409.50;5126345;28;20636;-57
2022/03/13 02:38:23;;;;;;;1.83;1.70;;;;;;;17.86;39.78;101419.97;5125970;27;20027;-56
2022/03/13 02:40:49;;;;;;;2.25;1.98;;;;;;;17.85;39.51;101417.44;5109148;27;20028;-57
2022/03/13 02:43:15;;;;;;;1.80;1.67;;;;;;;17.85;39.46;101409.38;5113724;28;20083;-57
2022/03/13 02:45:41;;;;;;;2.58;2.00;;;;;;;17.84;39.64;101410.34;5125156;28;20035;-57
2022/03/13 02:48:08;;;;;;;2.05;1.88;;;;;;;17.84;39.64;101407.66;5125225;28;20031;-56
2022/03/13 02:50:33;;;;;;;2.40;2.20;;;;;;;17.83;39.83;101405.97;5125288;28;20036;-57
2022/03/13 02:52:59;;;;;;;1.98;1.83;;;;;;;17.82;39.74;101418.56;5125650;28;20100;-56
2022/03/13 02:55:24;;;;;;;1.77;1.63;;;;;;;17.79;39.63;101399.19;5124657;28;20054;-56
2022/03/13 02:57:50;;;;;;;2.58;2.17;;;;;;;17.80;39.56;101415.19;5125682;28;20051;-57
2022/03/13 03:00:16;;;;;;;1.70;1.60;;;;;;;17.80;39.66;101412.50;5124773;28;20034;-57
2022/03/13 03:02:42;;;;;;;1.95;1.73;;;;;;;17.79;39.63;101400.03;5125178;28;20137;-57
2022/03/13 03:05:08;;;;;;;2.65;2.10;;;;;;;17.78;39.85;101406.41;5125726;28;20031;-58
2022/03/13 03:07:34;;;;;;;2.00;1.80;;;;;;;17.79;39.60;101407.25;5125405;28;20027;-57
2022/03/13 03:10:00;;;;;;;1.92;1.80;;;;;;;17.78;39.65;101409.09;5125023;28;20047;-57
2022/03/13 03:12:27;;;;;;;1.92;1.75;;;;;;;17.74;39.75;101405.00;5125532;28;20028;-57
2022/03/13 03:14:52;;;;;;;2.58;2.00;;;;;;;17.77;39.71;101411.94;5124611;27;20148;-54
2022/03/13 03:17:17;;;;;;;1.95;1.65;;;;;;;17.74;39.82;101400.47;5124438;28;20495;-56
2022/03/13 03:19:42;;;;;;;2.50;2.08;;;;;;;17.74;39.71;101410.38;5125089;28;20605;-57
2022/03/13 03:22:08;;;;;;;2.03;1.80;;;;;;;17.72;39.56;101407.81;5125019;28;20117;-57
2022/03/13 03:24:34;;;;;;;1.90;1.80;;;;;;;17.72;39.70;101401.59;5125061;28;20027;-58
2022/03/13 03:26:59;;;;;;;1.60;1.50;;;;;;;17.71;39.60;101410.66;5124861;28;20594;-57
2022/03/13 03:29:26;;;;;;;1.90;1.70;;;;;;;17.67;39.72;101407.44;5124299;28;20023;-57
2022/03/13 03:31:51;;;;;;;1.80;1.70;;;;;;;17.69;39.67;101416.19;5123194;28;20496;-57
2022/03/13 03:34:19;;;;;;;2.00;1.80;;;;;;;17.69;39.74;101412.66;5124973;28;20468;-57
2022/03/13 03:36:47;;;;;;;1.90;1.70;;;;;;;17.68;39.79;101411.81;5124837;28;20519;-58
2022/03/13 03:39:14;;;;;;;2.22;1.70;;;;;;;17.68;39.75;101416.34;5123149;28;20023;-56
2022/03/13 03:41:41;;;;;;;1.95;1.85;;;;;;;17.67;39.81;101418.19;5124841;28;20044;-57
2022/03/13 03:44:06;;;;;;;1.92;1.73;;;;;;;17.67;39.90;101422.69;5122823;28;20019;-57
2022/03/13 03:46:31;;;;;;;1.80;1.70;;;;;;;17.63;39.68;101424.00;5124861;28;20110;-58
2022/03/13 03:48:57;;;;;;;1.90;1.70;;;;;;;17.63;39.78;101424.84;5114417;28;20090;-57
2022/03/13 03:51:22;;;;;;;3.70;1.90;;;;;;;17.63;39.68;101422.16;5124641;28;20049;-58
2022/03/13 03:53:47;;;;;;;1.98;1.77;;;;;;;17.62;39.72;101419.59;5124403;28;20045;-58
2022/03/13 03:56:12;;;;;;;2.05;1.88;;;;;;;17.61;39.62;101425.97;5124094;28;20079;-57
2022/03/13 03:58:38;;;;;;;2.22;1.90;;;;;;;17.60;39.65;101427.00;5124583;28;20193;-55
2022/03/13 04:01:03;;;;;;;1.90;1.70;;;;;;;17.60;39.68;101432.38;5123748;28;20468;-58
2022/03/13 04:03:28;;;;;;;2.10;1.90;;;;;;;17.60;39.69;101424.31;5124066;28;20028;-58
2022/03/13 04:05:53;;;;;;;2.10;1.90;;;;;;;17.59;39.86;101425.31;5124367;28;20023;-58
2022/03/13 04:08:19;;;;;;;1.80;1.70;;;;;;;17.59;39.61;101426.16;5124321;28;20106;-57
2022/03/13 04:10:44;;;;;;;2.10;1.80;;;;;;;17.56;39.72;101414.84;5123878;28;20019;-58
2022/03/13 04:13:09;;;;;;;2.10;1.90;;;;;;;17.56;39.74;101421.06;5124371;28;20040;-57
2022/03/13 04:15:34;;;;;;;2.25;2.05;;;;;;;17.57;40.22;101427.28;5123211;28;20239;-58
2022/03/13 04:18:00;;;;;;;2.10;1.90;;;;;;;17.55;39.89;101415.84;5123490;28;20060;-56
2022/03/13 04:20:25;;;;;;;2.13;1.92;;;;;;;17.54;39.65;101420.34;5124254;28;20042;-57
2022/03/13 04:22:50;;;;;;;2.28;2.08;;;;;;;17.55;39.69;101418.53;5123938;28;20044;-58
2022/03/13 04:25:16;;;;;;;1.77;1.67;;;;;;;17.52;39.78;101411.59;5124051;28;20028;-55
2022/03/13 04:27:42;;;;;;;1.80;1.70;;;;;;;17.52;39.85;101408.06;5124117;28;20027;-57
2022/03/13 04:30:09;;;;;;;1.70;1.60;;;;;;;17.50;39.72;101408.22;5123163;28;20104;-57
2022/03/13 04:32:34;;;;;;;1.80;1.70;;;;;;;17.49;39.93;101407.34;5123509;28;20449;-58
2022/03/13 04:34:59;;;;;;;2.30;1.95;;;;;;;17.49;39.77;101409.19;5124009;28;20027;-56
2022/03/13 04:37:26;;;;;;;2.03;1.80;;;;;;;17.47;39.87;101405.81;5124124;28;20023;-57
2022/03/13 04:39:52;;;;;;;2.00;1.67;;;;;;;17.45;39.77;101397.03;5123298;28;20035;-57
2022/03/13 04:42:17;;;;;;;1.70;1.60;;;;;;;17.46;39.83;101410.34;5123607;28;20127;-57
2022/03/13 04:44:44;;;;;;;1.80;1.70;;;;;;;17.45;39.88;101413.16;5123287;28;20058;-57
2022/03/13 04:47:09;;;;;;;2.28;2.08;;;;;;;17.44;39.83;101409.63;5122852;28;20423;-57
2022/03/13 04:49:34;;;;;;;2.72;1.80;;;;;;;17.42;39.95;101403.56;5113185;28;20036;-57
2022/03/13 04:52:00;;;;;;;2.38;2.17;;;;;;;17.41;40.00;101406.38;5103302;28;20039;-57
2022/03/13 04:54:25;;;;;;;1.70;1.60;;;;;;;17.41;39.96;101409.91;5103278;28;20058;-58
2022/03/13 04:56:50;;;;;;;1.90;1.80;;;;;;;17.40;39.95;101410.91;5103391;28;20091;-57
2022/03/13 04:59:15;;;;;;;2.03;1.70;;;;;;;17.38;40.07;101409.38;5102587;28;20067;-56
2022/03/13 05:01:41;;;;;;;1.92;1.70;;;;;;;17.37;39.87;101405.81;5103167;28;20036;-55
2022/03/13 05:04:07;;;;;;;1.95;1.75;;;;;;;17.37;39.94;101415.72;5103007;28;20051;-58
2022/03/13 05:06:37;;;;;;;1.80;1.70;;;;;;;17.36;40.00;101422.94;5102983;28;20044;-57
2022/03/13 05:09:04;;;;;;;2.05;1.85;;;;;;;17.34;39.95;101416.88;5102826;28;20032;-57
2022/03/13 05:11:29;;;;;;;1.90;1.80;;;;;;;17.34;39.82;101416.03;5103319;28;20039;-57
2022/03/13 05:13:55;;;;;;;2.50;1.90;;;;;;;17.32;40.07;101415.31;5102967;28;20367;-57
2022/03/13 05:16:20;;;;;;;2.53;1.98;;;;;;;17.32;40.15;101415.31;5102397;28;20031;-57
2022/03/13 05:18:45;;;;;;;2.30;1.92;;;;;;;17.30;39.95;101418.16;5124257;28;20019;-57
2022/03/13 05:21:10;;;;;;;2.20;2.00;;;;;;;17.29;40.11;101413.78;5127409;28;20280;-58
2022/03/13 05:23:35;;;;;;;2.03;1.83;;;;;;;17.28;40.07;101417.44;5127762;28;20024;-57
2022/03/13 05:26:01;;;;;;;2.08;1.80;;;;;;;17.27;39.93;101418.44;5127071;28;20027;-57
2022/03/13 05:28:27;;;;;;;2.20;1.90;;;;;;;17.27;40.12;101421.13;5127678;28;20034;-57
2022/03/13 05:30:52;;;;;;;2.90;2.08;;;;;;;17.24;39.97;101422.25;5126395;28;20387;-57
2022/03/13 05:33:17;;;;;;;2.25;2.03;;;;;;;17.26;39.78;101423.97;5126854;28;20032;-58
2022/03/13 05:35:43;;;;;;;1.95;1.80;;;;;;;17.24;39.97;101418.72;5126699;28;20027;-59
2022/03/13 05:38:08;;;;;;;2.22;1.98;;;;;;;17.24;40.07;101416.03;5126282;28;20019;-58
2022/03/13 05:40:35;;;;;;;2.33;2.13;;;;;;;17.22;40.00;101420.72;5126416;28;20083;-58
2022/03/13 05:43:01;;;;;;;1.90;1.75;;;;;;;17.22;39.91;101412.66;5126024;28;20028;-57
2022/03/13 05:45:28;;;;;;;1.98;1.77;;;;;;;17.21;40.00;101406.44;5123322;28;20471;-57
2022/03/13 05:48:17;;;;;;;2.10;1.90;;;;;;;17.22;40.13;101405.44;5124578;28;20012;-58
2022/03/13 05:50:43;;;;;;;2.47;2.20;;;;;;;17.18;40.15;101395.97;5126171;28;20019;-56
2022/03/13 05:53:09;;;;;;;2.75;2.10;;;;;;;17.22;40.14;101402.75;5126504;28;20016;-57
2022/03/13 05:55:34;;;;;;;2.28;2.08;;;;;;;17.24;40.17;101407.97;5126267;28;20027;-57
2022/03/13 05:58:00;;;;;;;2.42;2.20;;;;;;;17.28;40.16;101405.84;5126743;28;20208;-57
2022/03/13 06:00:27;;;;;;;2.30;2.10;;;;;;;17.29;40.42;101405.72;5122949;28;20045;-55
2022/03/13 06:02:53;;;;;;;3.63;2.78;;;;;;;17.32;40.81;101424.22;5126170;28;20042;-57
2022/03/13 06:05:19;;;;;;;3.00;2.70;;;;;;;17.36;41.18;101414.03;5126097;28;20456;-57
2022/03/13 06:07:46;;;;;;;2.92;2.53;;;;;;;17.38;40.89;101420.97;5124037;27;20020;-57
2022/03/13 06:10:12;;;;;;;3.10;2.58;;;;;;;17.36;40.86;101414.88;5125215;28;20023;-57
2022/03/13 06:12:37;;;;;;;3.22;2.88;;;;;;;17.39;40.87;101413.75;5125600;28;20020;-55
2022/03/13 06:15:05;;;;;;;3.97;2.97;;;;;;;17.40;40.80;101421.66;5125306;28;20030;-57
2022/03/13 06:17:31;;;;;;;3.00;2.70;;;;;;;17.43;40.68;101423.22;5125195;28;20411;-57
2022/03/13 06:19:56;;;;;;;3.05;2.60;;;;;;;17.44;40.35;101430.28;5125511;28;20041;-56
2022/03/13 06:22:23;;;;;;;4.30;2.72;;;;;;;17.46;40.74;101431.84;5125672;28;20039;-57
2022/03/13 06:24:48;;;;;;;3.53;2.95;;;;;;;17.36;40.49;101409.50;5125881;28;20159;-57
2022/03/13 06:27:14;;;;;;;2.78;2.58;;;;;;;17.49;40.73;101434.22;5125315;28;20435;-56
2022/03/13 06:29:40;;;;;;;3.83;2.95;;;;;;;17.38;40.63;101409.38;5123518;28;20035;-56
2022/03/13 06:32:06;;;;;;;2.85;2.58;;;;;;;17.50;40.64;101432.41;5126131;28;20035;-55
2022/03/13 06:34:31;;;;;;;3.25;2.70;;;;;;;17.46;40.20;101423.78;5131222;28;20020;-57
2022/03/13 06:36:56;;;;;;;2.80;2.50;;;;;;;17.54;40.62;101435.63;5129328;28;20020;-55
2022/03/13 06:39:22;;;;;;;3.53;2.67;;;;;;;17.54;40.80;101431.09;5129620;28;20024;-57
2022/03/13 06:41:47;;;;;;;3.17;2.70;;;;;;;17.55;40.93;101438.19;5128484;28;20023;-56
2022/03/13 06:44:13;;;;;;;3.42;2.40;;;;;;;17.55;40.67;101432.81;5124886;28;20027;-56
2022/03/13 06:46:38;;;;;;;3.00;2.70;;;;;;;17.57;40.65;101427.28;5123427;28;20054;-56
2022/03/13 06:49:06;;;;;;;3.60;3.30;;;;;;;17.57;40.69;101433.50;5120542;28;20036;-57
2022/03/13 06:51:32;;;;;;;3.85;3.08;;;;;;;17.58;40.69;101431.66;5125100;28;20024;-57
2022/03/13 06:53:58;;;;;;;4.63;3.47;;;;;;;17.60;40.83;101443.13;5125379;28;20127;-57
2022/03/13 06:56:24;;;;;;;5.00;3.35;;;;;;;17.60;40.68;101435.06;5122151;28;20016;-56
2022/03/13 06:58:49;;;;;;;3.50;3.10;;;;;;;17.60;40.78;101445.81;5125035;28;20099;-57
2022/03/13 07:01:14;;;;;;;4.50;3.55;;;;;;;17.61;40.75;101445.66;5124587;28;20020;-57
2022/03/13 07:03:40;;;;;;;3.40;2.80;;;;;;;17.62;40.89;101444.66;5124834;28;20034;-57
2022/03/13 07:06:05;;;;;;;4.05;2.97;;;;;;;17.63;40.89;101450.91;5125076;28;20027;-57
2022/03/13 07:08:34;;;;;;;3.10;2.78;;;;;;;17.64;41.02;101449.91;5124758;28;20026;-58
2022/03/13 07:11:01;;;;;;;3.87;3.00;;;;;;;17.63;40.96;101437.47;5124320;27;20034;-53
2022/03/13 07:13:31;;;;;;;3.35;2.92;;;;;;;17.66;40.97;101442.50;5107857;28;20042;-54
2022/03/13 07:15:56;;;;;;;3.58;3.15;;;;;;;17.67;41.09;101437.00;5115131;28;20062;-56
2022/03/13 07:18:22;;;;;;;3.83;3.15;;;;;;;17.69;41.02;101439.53;5107657;28;20040;-57
2022/03/13 07:20:47;;;;;;;3.67;3.03;;;;;;;17.68;41.32;101437.84;5112177;28;20020;-57
2022/03/13 07:23:13;;;;;;;4.88;3.30;;;;;;;17.76;41.28;101447.91;5116132;28;20035;-56
2022/03/13 07:25:38;;;;;;;3.75;3.20;;;;;;;17.80;41.10;101446.59;5117464;28;20030;-58
2022/03/13 07:28:05;;;;;;;3.42;3.03;;;;;;;17.86;40.97;101433.41;5121284;28;20024;-58
2022/03/13 07:30:32;;;;;;;4.70;2.95;;;;;;;17.94;41.00;101432.66;5116339;28;20078;-57
2022/03/13 07:32:57;;;;;;;4.03;3.33;;;;;;;18.05;40.73;101428.91;5117060;28;20027;-57
2022/03/13 07:35:23;;;;;;;3.55;3.05;;;;;;;18.20;40.54;101433.66;5114552;28;20636;-57
2022/03/13 07:37:48;;;;;;;3.80;3.45;;;;;;;18.32;40.24;101430.75;5114336;28;20115;-57
2022/03/13 07:40:13;;;;;;;3.78;3.13;;;;;;;18.43;40.11;101438.59;5121853;28;20035;-56
2022/03/13 07:42:39;;;;;;;4.07;3.15;;;;;;;18.51;39.85;101435.13;5119957;28;20106;-55
2022/03/13 07:45:04;;;;;;;5.10;3.22;;;;;;;18.55;39.57;101429.28;5110844;28;20397;-56
2022/03/13 07:47:31;;;;;;;3.85;3.10;;;;;;;18.57;39.58;101418.38;5117474;28;20023;-57
2022/03/13 07:49:57;;;;;;;3.38;3.05;;;;;;;18.57;39.44;101421.06;5116671;28;20024;-57
2022/03/13 07:52:23;;;;;;;3.92;3.20;;;;;;;18.56;39.63;101422.91;5118591;28;20028;-58
2022/03/13 07:54:48;;;;;;;4.97;3.17;;;;;;;18.56;39.66;101420.19;5109319;28;20024;-57
2022/03/13 07:57:13;;;;;;;4.97;3.53;;;;;;;18.55;39.29;101429.28;5113204;28;20096;-57
2022/03/13 07:59:39;;;;;;;3.17;2.88;;;;;;;18.56;39.41;101435.53;5118411;28;20033;-57
2022/03/13 08:02:04;;;;;;;3.50;3.03;;;;;;;18.55;39.48;101444.59;5120230;28;20028;-55
2022/03/13 08:04:29;;;;;;;3.50;3.20;;;;;;;18.54;39.41;101443.75;5113675;28;20024;-57
2022/03/13 08:06:55;;;;;;;4.05;3.42;;;;;;;18.52;39.60;101439.53;5110939;28;20024;-56
2022/03/13 08:09:20;;;;;;;3.70;3.35;;;;;;;18.55;39.43;101447.28;5121468;28;20031;-57
2022/03/13 08:11:45;;;;;;;3.90;2.72;;;;;;;18.54;39.54;101462.63;5118788;28;20054;-58
2022/03/13 08:14:12;;;;;;;5.75;3.30;;;;;;;18.57;39.39;101456.09;5114236;28;20024;-57
2022/03/13 08:16:37;;;;;;;4.05;2.90;;;;;;;18.61;39.72;101438.63;5105444;28;20473;-56
2022/03/13 08:19:03;;;;;;;3.97;3.10;;;;;;;18.82;39.37;101444.56;5112615;28;20088;-57
2022/03/13 08:21:28;;;;;;;3.42;2.65;;;;;;;19.02;39.03;101433.59;5121460;28;20066;-57
2022/03/13 08:23:54;;;;;;;4.03;3.33;;;;;;;19.20;38.96;101439.81;5115743;28;20035;-56
2022/03/13 08:26:20;;;;;;;3.75;3.05;;;;;;;19.39;38.62;101441.47;5114996;28;20076;-57
2022/03/13 08:28:45;;;;;;;3.63;2.72;;;;;;;19.56;38.34;101434.31;5121614;28;20031;-56
2022/03/13 08:31:11;;;;;;;3.55;2.88;;;;;;;19.65;38.12;101434.22;5121206;28;20020;-57
2022/03/13 08:33:37;;;;;;;4.60;3.08;;;;;;;19.69;37.67;101426.66;5119402;28;20078;-56
2022/03/13 08:36:03;;;;;;;3.97;2.75;;;;;;;19.68;37.46;101420.41;5116640;28;20019;-57
2022/03/13 08:38:28;;;;;;;3.30;2.50;;;;;;;19.79;37.67;101426.53;5114407;28;20015;-57
2022/03/13 08:40:54;;;;;;;2.83;2.40;;;;;;;20.08;37.38;101435.06;5117014;28;20057;-56
2022/03/13 08:43:19;;;;;;;3.58;2.80;;;;;;;20.48;36.24;101436.25;5107530;28;20032;-56
2022/03/13 08:45:44;;;;;;;3.28;2.88;;;;;;;20.86;35.71;101434.75;5118557;28;20042;-57
2022/03/13 08:48:10;;;;;;;3.90;2.67;;;;;;;21.40;34.84;101437.75;5113570;28;20024;-57
2022/03/13 08:50:35;;;;;;;7.97;3.45;;;;;;;21.88;34.29;101445.91;5113721;28;20111;-56
2022/03/13 08:53:01;;;;;;;3.00;2.38;;;;;;;22.09;33.69;101439.88;5106510;28;20040;-58
2022/03/13 08:55:27;;;;;;;3.67;2.80;;;;;;;22.11;33.34;101440.56;5110794;28;20034;-53
2022/03/13 08:57:52;;;;;;;3.53;2.88;;;;;;;22.02;33.08;101433.50;5111298;28;20036;-58
2022/03/13 09:00:18;;;;;;;2.92;2.53;;;;;;;21.87;33.31;101436.09;5108728;28;20019;-57
2022/03/13 09:02:44;;;;;;;4.40;2.95;;;;;;;21.73;33.25;101429.56;5101212;28;20095;-58
2022/03/13 09:05:10;;;;;;;3.03;2.50;;;;;;;21.91;33.64;101432.00;5111708;28;20051;-57
2022/03/13 09:07:35;;;;;;;4.25;2.65;;;;;;;22.38;32.98;101433.81;5114217;28;20087;-58
2022/03/13 09:10:02;;;;;;;3.75;2.85;;;;;;;22.94;32.16;101420.94;5121674;28;20031;-58
2022/03/13 09:12:30;;;;;;;3.60;2.70;;;;;;;23.48;31.06;101433.44;5123132;28;20027;-59
2022/03/13 09:14:55;;;;;;;4.10;2.50;;;;;;;23.93;30.55;101422.41;5121898;28;20089;-59
2022/03/13 09:17:21;;;;;;;3.53;2.42;;;;;;;24.33;29.84;101425.59;5122428;28;20051;-60
2022/03/13 09:19:46;;;;;;;3.00;2.40;;;;;;;24.53;29.38;101423.13;5123249;28;20053;-58
2022/03/13 09:22:14;;;;;;;3.90;2.75;;;;;;;24.56;29.25;101413.75;5123356;28;20116;-59
2022/03/13 09:24:39;;;;;;;4.03;2.83;;;;;;;24.44;28.83;101411.53;5123274;28;20062;-59
2022/03/13 09:27:04;;;;;;;3.97;2.85;;;;;;;24.22;29.16;101414.41;5122571;28;20276;-59
2022/03/13 09:29:29;;;;;;;4.00;2.78;;;;;;;23.89;29.45;101418.38;5122365;28;20173;-59
2022/03/13 09:31:54;;;;;;;5.47;3.38;;;;;;;23.57;29.86;101416.03;5123183;28;20072;-60
2022/03/13 09:34:20;;;;;;;5.25;3.20;;;;;;;23.23;30.38;101413.84;5117596;28;20047;-59
2022/03/13 09:36:45;;;;;;;5.18;3.10;;;;;;;22.90;30.62;101415.03;5108541;28;20050;-61
2022/03/13 09:39:10;;;;;;;5.80;2.92;;;;;;;22.60;30.95;101399.63;5113817;28;20863;-60
2022/03/13 09:41:38;;;;;;;5.82;3.67;;;;;;;22.33;31.18;101401.84;5105667;28;20039;-59
2022/03/13 09:44:05;;;;;;;5.35;3.60;;;;;;;22.11;31.64;101405.34;5110787;28;20020;-60
2022/03/13 09:46:30;;;;;;;7.07;4.13;;;;;;;21.91;31.92;101394.09;5106430;28;20330;-60
2022/03/13 09:48:55;;;;;;;6.38;3.80;;;;;;;21.71;32.18;101393.72;5112062;28;20243;-60
2022/03/13 09:51:21;;;;;;;4.57;3.28;;;;;;;21.52;32.43;101394.94;5111561;28;20098;-60
2022/03/13 09:53:46;;;;;;;5.18;3.00;;;;;;;21.35;32.86;101399.56;5106560;28;20532;-59
2022/03/13 09:56:11;;;;;;;15.65;4.70;;;;;;;21.18;34.24;101417.66;5109712;28;20032;-63
2022/03/13 09:58:37;;;;;;;9.48;3.70;;;;;;;20.85;34.80;101413.28;5106639;28;20103;-60
2022/03/13 10:01:02;;;;;;;5.90;4.40;;;;;;;20.42;36.00;101409.84;5108815;28;20122;-59
2022/03/13 10:03:28;;;;;;;39.42;6.07;;;;;;;19.97;37.59;101424.59;5110537;28;20107;-63
2022/03/13 10:05:55;;;;;;;8.68;3.03;;;;;;;19.57;38.67;101412.56;5108636;28;20027;-70
2022/03/13 10:08:26;;;;;;;6.93;2.50;;;;;;;19.24;38.93;101416.91;5114255;28;20028;-71
2022/03/13 10:10:52;;;;;;;4.53;2.33;;;;;;;18.94;39.08;101416.34;5110614;28;20268;-70
2022/03/13 10:13:32;;;;;;;3.65;2.45;;;;;;;18.71;39.33;101412.47;5104543;28;20024;-71
2022/03/13 10:15:58;;;;;;;2.83;2.30;;;;;;;18.52;39.68;101420.66;5112691;28;20084;-71
2022/03/13 10:18:25;;;;;;;2.85;1.83;;;;;;;18.36;40.15;101418.69;5119777;28;20086;-70
2022/03/13 10:20:51;;;;;;;5.57;2.67;;;;;;;18.23;40.39;101417.19;5112057;28;20087;-68
2022/03/13 10:23:19;;;;;;;1.98;1.63;;;;;;;18.13;40.43;101416.41;5115757;28;20496;-67
2022/03/13 10:25:47;;;;;;;2.92;1.75;;;;;;;18.06;40.50;101409.94;5108162;28;20047;-69
2022/03/13 10:28:19;;;;;;;1.80;1.33;;;;;;;17.99;40.44;101412.38;5111203;28;20027;-69
2022/03/13 10:30:47;;;;;;;1.77;1.27;;;;;;;17.95;40.49;101411.00;5108888;28;20032;-68
2022/03/13 10:33:13;;;;;;;2.33;1.40;;;;;;;17.91;40.54;101404.22;5106959;28;20035;-66
2022/03/13 10:35:39;;;;;;;1.90;1.42;;;;;;;17.89;40.74;101392.78;5111435;28;20132;-68
2022/03/13 10:38:19;;;;;;;3.03;1.60;;;;;;;17.90;40.62;101402.53;5104140;28;20028;-71
2022/03/13 10:40:45;;;;;;;1.85;1.13;;;;;;;17.87;40.79;101397.44;5104806;28;20084;-68
2022/03/13 10:43:18;;;;;;;1.80;1.30;;;;;;;17.86;41.02;101389.53;5112327;28;20020;-64
2022/03/13 10:45:51;;;;;;;2.65;1.80;;;;;;;17.87;40.90;101396.59;5116534;28;20335;-66
2022/03/13 10:48:28;;;;;;;2.13;1.52;;;;;;;17.88;40.88;101392.91;5110414;28;20036;-68
2022/03/13 10:50:56;;;;;;;1.63;1.35;;;;;;;17.85;41.06;101396.75;5110017;28;20020;-67
2022/03/13 10:53:21;;;;;;;2.38;1.50;;;;;;;17.85;41.43;101394.06;5117788;28;20103;-68
2022/03/13 10:56:07;;;;;;;1.80;1.40;;;;;;;17.86;41.41;101384.16;5111757;28;20035;-66
2022/03/13 10:58:35;;;;;;;1.92;1.63;;;;;;;17.84;41.73;101380.75;5115378;28;20058;-65
2022/03/13 11:01:04;;;;;;;1.83;1.30;;;;;;;17.82;41.85;101380.91;5115636;28;20036;-64
2022/03/13 11:03:30;;;;;;;1.58;1.30;;;;;;;17.82;42.13;101377.38;5107536;27;20739;-65
2022/03/13 11:05:55;;;;;;;1.80;1.30;;;;;;;17.82;42.24;101377.38;5111393;28;20066;-64
2022/03/13 11:08:20;;;;;;;1.95;1.20;;;;;;;17.83;42.26;101376.38;5108635;28;20040;-66
2022/03/13 11:10:46;;;;;;;2.25;1.25;;;;;;;17.84;42.49;101368.16;5090910;28;20028;-66
2022/03/13 11:13:12;;;;;;;1.98;1.13;;;;;;;17.84;42.38;101373.56;5089280;28;20101;-66
2022/03/13 11:15:38;;;;;;;2.05;1.50;;;;;;;17.84;42.41;101364.59;5113380;28;20024;-66
2022/03/13 11:18:04;;;;;;;3.15;1.42;;;;;;;17.80;42.66;101365.91;5114198;28;20047;-65
2022/03/13 11:20:30;;;;;;;1.60;1.25;;;;;;;17.82;42.74;101378.22;5113681;28;20074;-66